Time;durP1;ratioP1;P1;durP2;ratioP2;P2;SDS_P1;SDS_P2;PMS_P1;PMS_P2;Temp;Humidity;BMP_temperature;BMP_pressure;BME280_temperature;BME280_humidity;BME280_pressure;Samples;Min_cycle;Max_cycle;Signal;HPM_P1;HPM_P2
2022/12/30 00:03:11;;;;;;;0.10;0.10;;;;;;;5.60;100.00;100435.06;10416978;28;20025;-81
2022/12/30 00:34:59;;;;;;;0.10;0.10;;;;;;;5.74;100.00;100482.25;10448688;28;20483;-81
2022/12/30 00:39:59;;;;;;;0.00;0.00;;;;;;;5.66;100.00;100490.00;10440637;28;20017;-80
2022/12/30 00:45:00;;;;;;;0.00;0.00;;;;;;;5.63;100.00;100492.94;10458415;28;20486;-80
2022/12/30 01:00:39;;;;;;;0.10;0.10;;;;;;;5.68;100.00;100498.66;10436104;28;20028;-81
2022/12/30 01:05:40;;;;;;;0.00;0.00;;;;;;;5.70;100.00;100501.97;10456436;28;20017;-81
2022/12/30 01:10:40;;;;;;;0.00;0.00;;;;;;;5.68;100.00;100517.16;10450518;28;20044;-78
2022/12/30 01:15:41;;;;;;;0.10;0.10;;;;;;;5.61;100.00;100527.44;10437884;28;20823;-80
2022/12/30 01:20:41;;;;;;;0.10;0.10;;;;;;;5.59;100.00;100533.81;10419158;28;20091;-80
2022/12/30 01:25:41;;;;;;;0.00;0.00;;;;;;;5.58;100.00;100542.69;10414609;28;20488;-80
2022/12/30 01:30:41;;;;;;;0.00;0.00;;;;;;;5.57;100.00;100551.59;10407237;28;20021;-79
2022/12/30 01:35:42;;;;;;;0.00;0.00;;;;;;;5.61;100.00;100568.84;10422059;28;20021;-78
2022/12/30 01:40:43;;;;;;;0.00;0.00;;;;;;;5.60;100.00;100572.47;10401672;28;20087;-79
2022/12/30 01:45:48;;;;;;;0.00;0.00;;;;;;;5.55;100.00;100575.50;10396763;28;20117;-81
2022/12/30 01:51:01;;;;;;;0.00;0.00;;;;;;;5.51;100.00;100575.91;10397032;28;20496;-82
2022/12/30 01:56:08;;;;;;;0.00;0.00;;;;;;;5.52;100.00;100575.75;10405686;28;20093;-81
2022/12/30 02:01:08;;;;;;;0.00;0.00;;;;;;;5.51;100.00;100591.75;10414979;28;20368;-80
2022/12/30 02:06:09;;;;;;;0.00;0.00;;;;;;;5.46;100.00;100602.72;10436353;28;20025;-80
2022/12/30 02:11:09;;;;;;;0.00;0.00;;;;;;;5.42;100.00;100596.88;10405412;28;20021;-81
2022/12/30 02:16:48;;;;;;;0.00;0.00;;;;;;;5.39;100.00;100594.50;10401054;28;20025;-81
2022/12/30 02:22:16;;;;;;;0.00;0.00;;;;;;;5.48;100.00;100586.75;10247109;29;20266;-80
2022/12/30 02:27:57;;;;;;;0.00;0.00;;;;;;;5.53;100.00;100605.69;10395844;28;20068;-81
2022/12/30 02:33:27;;;;;;;0.00;0.00;;;;;;;5.54;100.00;100600.25;10426791;28;20028;-80
2022/12/30 02:39:01;;;;;;;0.00;0.00;;;;;;;5.61;100.00;100611.13;10425821;28;20100;-81
2022/12/30 02:44:36;;;;;;;0.05;0.05;;;;;;;5.63;100.00;100610.03;10442473;28;20029;-81
2022/12/30 02:49:40;;;;;;;0.03;0.03;;;;;;;5.73;100.00;100628.59;10443891;28;20060;-79
2022/12/30 02:54:46;;;;;;;0.00;0.00;;;;;;;5.79;100.00;100630.69;10443859;28;20039;-81
2022/12/30 03:05:59;;;;;;;0.00;0.00;;;;;;;5.85;100.00;100619.59;10441553;28;20032;-80
2022/12/30 03:11:17;;;;;;;0.00;0.00;;;;;;;5.98;100.00;100644.97;10293147;28;20034;-80
2022/12/30 03:16:31;;;;;;;0.00;0.00;;;;;;;6.07;100.00;100654.75;10421755;28;20032;-81
2022/12/30 03:21:36;;;;;;;0.00;0.00;;;;;;;6.09;100.00;100666.03;10443193;28;20020;-78
2022/12/30 03:31:57;;;;;;;0.00;0.00;;;;;;;6.12;100.00;100679.00;10440042;28;20017;-77
2022/12/30 03:37:22;;;;;;;0.10;0.10;;;;;;;6.11;100.00;100694.03;10440533;28;20472;-77
2022/12/30 03:42:23;;;;;;;0.05;0.05;;;;;;;6.05;100.00;100698.97;10416623;28;20102;-77
2022/12/30 03:47:23;;;;;;;0.10;0.10;;;;;;;6.04;100.00;100707.91;10426633;28;20082;-78
2022/12/30 03:52:24;;;;;;;0.00;0.00;;;;;;;6.02;100.00;100712.47;10435771;28;20021;-78
2022/12/30 03:57:24;;;;;;;0.10;0.10;;;;;;;6.02;100.00;100709.81;10439717;28;20612;-78
2022/12/30 04:02:25;;;;;;;0.00;0.00;;;;;;;6.04;100.00;100705.25;10438266;28;20154;-77
2022/12/30 04:07:25;;;;;;;0.10;0.10;;;;;;;6.01;100.00;100703.72;10434873;28;20028;-77
2022/12/30 04:12:25;;;;;;;0.08;0.08;;;;;;;5.99;100.00;100721.53;10428807;28;20100;-77
2022/12/30 04:17:26;;;;;;;0.00;0.00;;;;;;;5.99;100.00;100736.53;10438219;28;20107;-77
2022/12/30 04:22:26;;;;;;;0.00;0.00;;;;;;;5.94;100.00;100734.31;10435342;28;20271;-78
2022/12/30 04:27:26;;;;;;;0.00;0.00;;;;;;;5.96;100.00;100742.09;10438260;28;20411;-77
2022/12/30 04:32:27;;;;;;;0.10;0.10;;;;;;;5.96;100.00;100756.13;10417983;28;20025;-78
2022/12/30 04:37:27;;;;;;;0.00;0.00;;;;;;;5.92;100.00;100749.41;10435453;28;20501;-78
2022/12/30 04:42:27;;;;;;;0.03;0.03;;;;;;;5.92;100.00;100753.88;10433668;28;20434;-80
2022/12/30 04:47:29;;;;;;;0.00;0.00;;;;;;;5.89;100.00;100773.47;10433312;28;20099;-78
2022/12/30 04:52:30;;;;;;;0.00;0.00;;;;;;;5.82;100.00;100759.13;10414681;28;20411;-78
2022/12/30 04:57:30;;;;;;;0.05;0.05;;;;;;;5.83;100.00;100763.41;10431141;28;20110;-78
2022/12/30 05:02:31;;;;;;;0.00;0.00;;;;;;;5.72;100.00;100774.88;10414205;28;20025;-77
2022/12/30 05:07:31;;;;;;;0.00;0.00;;;;;;;5.58;100.00;100780.50;10440064;28;20033;-77
2022/12/30 05:12:31;;;;;;;0.00;0.00;;;;;;;5.48;100.00;100792.81;10431515;28;20108;-78
2022/12/30 05:17:32;;;;;;;0.00;0.00;;;;;;;5.35;100.00;100791.19;10436992;28;20507;-78
2022/12/30 05:22:32;;;;;;;0.08;0.08;;;;;;;5.39;100.00;100789.94;10442408;28;20021;-78
2022/12/30 05:27:32;;;;;;;0.00;0.00;;;;;;;5.37;100.00;100797.16;10419427;28;20053;-78
2022/12/30 05:32:33;;;;;;;0.03;0.03;;;;;;;5.41;100.00;100793.31;10439640;28;20032;-78
2022/12/30 05:37:33;;;;;;;0.10;0.10;;;;;;;5.39;100.00;100786.47;10439738;28;20054;-78
2022/12/30 05:42:33;;;;;;;0.10;0.10;;;;;;;5.39;100.00;100797.03;10415784;28;20568;-78
2022/12/30 05:47:34;;;;;;;0.00;0.00;;;;;;;5.41;100.00;100806.53;10429153;28;20040;-79
2022/12/30 05:52:34;;;;;;;0.03;0.03;;;;;;;5.35;100.00;100799.09;10433728;28;20551;-78
2022/12/30 05:57:34;;;;;;;0.10;0.10;;;;;;;5.23;100.00;100802.72;10429649;28;20766;-78
2022/12/30 06:02:35;;;;;;;0.00;0.00;;;;;;;5.03;100.00;100799.06;10439731;28;20021;-78
2022/12/30 06:07:35;;;;;;;0.00;0.00;;;;;;;4.93;100.00;100806.88;10425585;28;20017;-78
2022/12/30 06:12:35;;;;;;;0.10;0.10;;;;;;;4.81;100.00;100812.31;10437793;28;20025;-78
2022/12/30 06:17:35;;;;;;;0.00;0.00;;;;;;;4.69;100.00;100808.88;10451539;28;20025;-78
2022/12/30 06:22:36;;;;;;;0.00;0.00;;;;;;;4.62;100.00;100802.38;10440493;28;20021;-78
2022/12/30 06:27:36;;;;;;;0.00;0.00;;;;;;;4.50;100.00;100805.00;10415291;28;20272;-78
2022/12/30 06:32:37;;;;;;;0.00;0.00;;;;;;;4.43;100.00;100814.38;10419230;28;20476;-77
2022/12/30 06:37:37;;;;;;;0.00;0.00;;;;;;;4.33;100.00;100813.41;10438120;28;20017;-77
2022/12/30 06:42:38;;;;;;;0.00;0.00;;;;;;;4.26;100.00;100820.97;10444891;28;20030;-77
2022/12/30 06:47:38;;;;;;;0.05;0.05;;;;;;;4.15;100.00;100804.28;10442238;28;20034;-78
2022/12/30 06:52:38;;;;;;;0.03;0.03;;;;;;;4.07;100.00;100812.78;10442134;28;20025;-77
2022/12/30 06:57:38;;;;;;;0.00;0.00;;;;;;;3.99;100.00;100817.81;10432372;28;20270;-77
2022/12/30 07:02:39;;;;;;;0.00;0.00;;;;;;;3.96;100.00;100826.78;10444077;28;20017;-77
2022/12/30 07:07:39;;;;;;;0.00;0.00;;;;;;;3.87;100.00;100830.13;10449844;28;20104;-77
2022/12/30 07:12:39;;;;;;;0.00;0.00;;;;;;;3.81;100.00;100827.94;10428063;28;20028;-77
2022/12/30 07:17:40;;;;;;;0.00;0.00;;;;;;;3.76;100.00;100830.09;10438090;28;20438;-77
2022/12/30 07:22:40;;;;;;;0.00;0.00;;;;;;;3.73;100.00;100825.06;10438204;28;20040;-78
2022/12/30 07:27:40;;;;;;;0.00;0.00;;;;;;;3.70;100.00;100820.03;10439444;28;20036;-77
2022/12/30 07:32:41;;;;;;;0.00;0.00;;;;;;;3.66;100.00;100822.03;10431546;28;20021;-77
2022/12/30 07:37:41;;;;;;;0.00;0.00;;;;;;;3.72;100.00;100841.81;10446570;28;20108;-78
2022/12/30 07:42:41;;;;;;;0.00;0.00;;;;;;;3.70;100.00;100836.66;10442721;28;20080;-77
2022/12/30 07:47:43;;;;;;;0.00;0.00;;;;;;;3.69;100.00;100836.75;10431527;28;20025;-77
2022/12/30 07:52:43;;;;;;;0.00;0.00;;;;;;;3.63;100.00;100845.97;10440294;28;20028;-77
2022/12/30 07:57:43;;;;;;;0.00;0.00;;;;;;;3.65;100.00;100848.50;10443066;28;20028;-77
2022/12/30 08:02:44;;;;;;;0.00;0.00;;;;;;;3.66;100.00;100844.91;10447049;28;20167;-77
2022/12/30 08:07:44;;;;;;;0.00;0.00;;;;;;;3.73;100.00;100848.78;10439287;28;20017;-77
2022/12/30 08:12:45;;;;;;;0.00;0.00;;;;;;;3.78;100.00;100850.09;10431088;28;20018;-77
2022/12/30 08:17:45;;;;;;;0.00;0.00;;;;;;;3.94;100.00;100846.31;10426889;28;20091;-77
2022/12/30 08:22:46;;;;;;;0.00;0.00;;;;;;;4.24;100.00;100846.59;10437692;28;20022;-77
2022/12/30 08:27:46;;;;;;;0.00;0.00;;;;;;;4.52;100.00;100852.38;10434213;28;20102;-78
2022/12/30 08:32:46;;;;;;;0.05;0.05;;;;;;;4.85;100.00;100834.84;10440087;28;20757;-77
2022/12/30 08:37:46;;;;;;;0.00;0.00;;;;;;;4.98;100.00;100846.13;10434273;28;20017;-77
2022/12/30 08:42:47;;;;;;;0.00;0.00;;;;;;;5.41;100.00;100843.50;10444774;28;20048;-77
2022/12/30 08:47:47;;;;;;;0.00;0.00;;;;;;;5.88;100.00;100841.38;10415350;28;20088;-77
2022/12/30 08:52:47;;;;;;;0.00;0.00;;;;;;;6.17;100.00;100850.47;10436208;28;20444;-77
2022/12/30 08:57:47;;;;;;;0.00;0.00;;;;;;;6.42;100.00;100857.16;10437548;28;20272;-77
2022/12/30 09:02:48;;;;;;;0.10;0.10;;;;;;;6.43;100.00;100864.13;10443163;28;20479;-76
2022/12/30 09:07:48;;;;;;;0.00;0.00;;;;;;;6.23;100.00;100852.63;10435456;28;20458;-77
2022/12/30 09:12:48;;;;;;;0.00;0.00;;;;;;;6.27;100.00;100856.69;10423043;28;20025;-77
2022/12/30 09:17:49;;;;;;;0.10;0.10;;;;;;;6.23;100.00;100848.16;10440920;28;20048;-77
2022/12/30 09:22:49;;;;;;;0.00;0.00;;;;;;;6.04;100.00;100854.16;10440080;28;20256;-77
2022/12/30 09:27:49;;;;;;;0.10;0.10;;;;;;;5.89;100.00;100848.31;10435957;22;20049;-79
2022/12/30 09:32:49;;;;;;;0.00;0.00;;;;;;;5.86;100.00;100847.75;10441482;28;20391;-79
2022/12/30 09:37:50;;;;;;;0.10;0.10;;;;;;;5.93;100.00;100832.22;10441041;28;20053;-79
2022/12/30 09:43:35;;;;;;;0.10;0.10;;;;;;;5.86;100.00;100824.78;10440274;28;20022;-79
2022/12/30 09:48:22;;;;;;;0.10;0.10;;;;;;;5.83;100.00;100819.75;10438288;28;20036;-79
2022/12/30 09:53:45;;;;;;;0.00;0.00;;;;;;;5.81;100.00;100821.69;10472269;28;20029;-80
2022/12/30 09:58:46;;;;;;;0.00;0.00;;;;;;;5.84;100.00;100820.59;10448122;28;20017;-79
2022/12/30 10:03:47;;;;;;;0.00;0.00;;;;;;;5.80;100.00;100813.91;10438954;28;20108;-79
2022/12/30 10:08:50;;;;;;;0.00;0.00;;;;;;;5.76;100.00;100804.53;10439099;28;20527;-80
2022/12/30 10:14:22;;;;;;;0.00;0.00;;;;;;;5.77;100.00;100796.50;10421562;28;20018;-79
2022/12/30 10:19:40;;;;;;;0.10;0.10;;;;;;;5.82;100.00;100791.66;10413829;28;20092;-80
2022/12/30 10:25:04;;;;;;;0.00;0.00;;;;;;;5.88;100.00;100775.28;10438237;28;20028;-79
2022/12/30 10:30:35;;;;;;;0.20;0.20;;;;;;;5.97;100.00;100783.44;10426909;28;20029;-79
2022/12/30 10:35:38;;;;;;;0.00;0.00;;;;;;;6.04;100.00;100766.91;10431033;28;20407;-79
2022/12/30 10:41:09;;;;;;;0.00;0.00;;;;;;;6.09;100.00;100758.59;10440064;28;20441;-79
2022/12/30 10:46:44;;;;;;;0.10;0.10;;;;;;;6.13;100.00;100744.13;10456456;28;20028;-78
2022/12/30 10:51:46;;;;;;;0.00;0.00;;;;;;;6.13;100.00;100723.78;10438469;28;20084;-79
2022/12/30 10:56:47;;;;;;;0.00;0.00;;;;;;;6.11;100.00;100712.53;10468878;28;20036;-79
2022/12/30 11:01:51;;;;;;;0.00;0.00;;;;;;;6.11;100.00;100695.84;10435823;28;20085;-80
2022/12/30 11:07:00;;;;;;;0.00;0.00;;;;;;;6.11;100.00;100703.78;10462358;28;20499;-79
2022/12/30 11:17:27;;;;;;;0.00;0.00;;;;;;;6.10;100.00;100681.75;10450628;28;20128;-79
2022/12/30 11:22:28;;;;;;;0.00;0.00;;;;;;;6.13;100.00;100670.91;10444905;28;20013;-79
2022/12/30 11:27:36;;;;;;;0.00;0.00;;;;;;;6.11;100.00;100666.75;10439218;28;20057;-79
2022/12/30 11:32:45;;;;;;;0.00;0.00;;;;;;;6.16;100.00;100651.28;10419650;28;20024;-78
2022/12/30 11:37:45;;;;;;;0.10;0.10;;;;;;;6.15;100.00;100638.22;10438554;28;20051;-79
2022/12/30 11:42:45;;;;;;;0.00;0.00;;;;;;;6.12;100.00;100626.09;10445286;28;20468;-79
2022/12/30 11:47:47;;;;;;;0.00;0.00;;;;;;;6.12;100.00;100620.81;10456515;28;20343;-79
2022/12/30 11:52:52;;;;;;;0.00;0.00;;;;;;;6.10;100.00;100617.44;10422565;28;20025;-80
2022/12/30 11:57:55;;;;;;;;;;;;;;;6.10;100.00;100613.00;10426447;28;20533;-79
2022/12/30 12:03:05;;;;;;;0.10;0.10;;;;;;;6.09;100.00;100597.28;10443787;28;19909;-79
2022/12/30 12:08:20;;;;;;;0.00;0.00;;;;;;;6.13;100.00;100585.44;10459238;28;20044;-79
2022/12/30 12:13:26;;;;;;;0.08;0.08;;;;;;;6.13;100.00;100578.34;10447751;28;20571;-78
2022/12/30 12:18:37;;;;;;;0.00;0.00;;;;;;;6.15;100.00;100562.34;10453290;28;20021;-79
2022/12/30 12:23:55;;;;;;;0.00;0.00;;;;;;;6.21;100.00;100555.69;10456515;28;20020;-79
2022/12/30 12:28:56;;;;;;;0.08;0.08;;;;;;;6.23;100.00;100541.34;10461913;28;20041;-79
2022/12/30 12:34:34;;;;;;;0.00;0.00;;;;;;;6.31;100.00;100528.28;10419205;28;20045;-79
2022/12/30 12:39:59;;;;;;;0.10;0.10;;;;;;;6.40;100.00;100516.03;10433496;28;20017;-79
2022/12/30 12:45:36;;;;;;;0.00;0.00;;;;;;;6.53;100.00;100523.66;10452805;28;20435;-79
2022/12/30 12:50:55;;;;;;;0.00;0.00;;;;;;;6.67;100.00;100510.00;10425331;28;20021;-79
2022/12/30 12:56:22;;;;;;;0.10;0.10;;;;;;;6.72;100.00;100489.25;10454230;28;20022;-79
2022/12/30 13:01:34;;;;;;;0.10;0.10;;;;;;;6.66;100.00;100486.31;10433852;28;20030;-79
2022/12/30 13:07:04;;;;;;;0.00;0.00;;;;;;;6.54;100.00;100475.03;10432155;28;20021;-79
2022/12/30 13:12:14;;;;;;;0.03;0.03;;;;;;;6.47;100.00;100463.38;10431618;28;20029;-79
2022/12/30 13:17:31;;;;;;;0.05;0.05;;;;;;;6.43;100.00;100451.38;10460380;28;20582;-79
2022/12/30 13:22:35;;;;;;;0.00;0.00;;;;;;;6.40;100.00;100441.09;10438607;28;20063;-79
2022/12/30 13:27:36;;;;;;;0.10;0.10;;;;;;;6.34;100.00;100435.41;10463649;28;20029;-79
2022/12/30 13:32:42;;;;;;;0.10;0.10;;;;;;;6.32;100.00;100432.06;10418113;28;20021;-79
2022/12/30 13:37:54;;;;;;;0.10;0.10;;;;;;;6.34;100.00;100411.59;10463446;28;20108;-79
2022/12/30 13:43:06;;;;;;;0.00;0.00;;;;;;;6.38;100.00;100382.22;10450558;28;20566;-79
2022/12/30 13:48:13;;;;;;;0.10;0.10;;;;;;;6.34;100.00;100369.28;10435069;28;20097;-79
2022/12/30 13:53:42;;;;;;;0.10;0.10;;;;;;;6.34;100.00;100360.47;10442032;28;20112;-79
2022/12/30 13:58:52;;;;;;;0.10;0.10;;;;;;;6.35;100.00;100357.72;10449887;28;20025;-79
2022/12/30 14:04:11;;;;;;;0.10;0.10;;;;;;;6.29;100.00;100345.06;10451189;28;20111;-79
2022/12/30 14:09:24;;;;;;;0.00;0.00;;;;;;;6.30;100.00;100333.50;10434649;28;20103;-78
2022/12/30 14:14:25;;;;;;;0.00;0.00;;;;;;;6.29;100.00;100329.19;10413315;28;20060;-77
2022/12/30 14:19:50;;;;;;;0.00;0.00;;;;;;;6.29;100.00;100315.97;10454751;28;20159;-77
2022/12/30 14:24:50;;;;;;;0.00;0.00;;;;;;;6.28;100.00;100298.44;10448338;28;20029;-77
2022/12/30 14:30:03;;;;;;;0.05;0.05;;;;;;;6.25;100.00;100300.50;10427794;28;20025;-77
2022/12/30 14:35:06;;;;;;;0.10;0.10;;;;;;;6.17;100.00;100288.03;10448982;28;20076;-77
2022/12/30 14:40:31;;;;;;;0.00;0.00;;;;;;;6.10;100.00;100268.41;10441166;28;20480;-77
2022/12/30 14:45:32;;;;;;;0.00;0.00;;;;;;;6.09;100.00;100262.28;10452516;28;20052;-76
2022/12/30 14:50:32;;;;;;;0.05;0.05;;;;;;;6.06;100.00;100251.19;10412533;28;20025;-77
2022/12/30 14:55:41;;;;;;;0.00;0.00;;;;;;;6.06;100.00;100233.50;10398790;28;20018;-77
2022/12/30 15:00:46;;;;;;;0.10;0.10;;;;;;;6.09;100.00;100225.28;10431495;28;20374;-77
2022/12/30 15:05:49;;;;;;;0.10;0.10;;;;;;;6.09;100.00;100212.06;10429858;28;20039;-77
2022/12/30 15:11:05;;;;;;;0.10;0.10;;;;;;;6.09;100.00;100192.72;10445807;28;20017;-77
2022/12/30 15:16:24;;;;;;;0.10;0.10;;;;;;;6.11;100.00;100166.97;10409153;28;20029;-77
2022/12/30 15:21:35;;;;;;;0.10;0.10;;;;;;;6.16;100.00;100155.94;10431676;28;20014;-77
2022/12/30 15:26:47;;;;;;;0.08;0.08;;;;;;;6.17;100.00;100150.53;10440280;28;20021;-77
2022/12/30 15:31:57;;;;;;;0.00;0.00;;;;;;;6.24;100.00;100127.78;10433262;22;20045;-77
2022/12/30 15:37:00;;;;;;;0.00;0.00;;;;;;;6.26;100.00;100125.00;10414475;28;20033;-77
2022/12/30 15:42:01;;;;;;;0.00;0.00;;;;;;;6.26;100.00;100102.03;10398760;28;20312;-78
2022/12/30 15:47:02;;;;;;;0.00;0.00;;;;;;;6.28;100.00;100101.84;10416306;28;20033;-77
2022/12/30 15:52:12;;;;;;;0.00;0.00;;;;;;;6.30;100.00;100089.31;10398693;28;20022;-77
2022/12/30 15:57:16;;;;;;;0.00;0.00;;;;;;;6.32;100.00;100079.44;10414155;28;20446;-76
2022/12/30 16:02:21;;;;;;;0.07;0.07;;;;;;;6.39;100.00;100066.44;10413268;28;20464;-75
2022/12/30 16:07:35;;;;;;;0.08;0.08;;;;;;;6.50;100.00;100068.84;10395301;28;20029;-77
2022/12/30 16:12:35;;;;;;;0.00;0.00;;;;;;;6.57;100.00;100046.09;10412845;28;20499;-76
2022/12/30 16:17:52;;;;;;;0.00;0.00;;;;;;;6.67;100.00;100030.97;10394955;28;20124;-77
2022/12/30 16:23:01;;;;;;;0.00;0.00;;;;;;;6.74;100.00;100005.53;10413128;28;20100;-77
2022/12/30 16:28:02;;;;;;;0.03;0.03;;;;;;;6.83;100.00;99998.50;10412756;28;20392;-77
2022/12/30 16:33:20;;;;;;;0.00;0.00;;;;;;;6.94;100.00;99979.69;10412738;28;20025;-76
2022/12/30 16:38:24;;;;;;;0.00;0.00;;;;;;;7.02;100.00;99960.41;10411930;28;20480;-75
2022/12/30 16:43:24;;;;;;;0.10;0.10;;;;;;;7.12;100.00;99973.50;10411137;28;20022;-76
2022/12/30 16:48:24;;;;;;;0.00;0.00;;;;;;;7.14;100.00;99948.53;10411683;28;20044;-77
2022/12/30 16:53:26;;;;;;;0.00;0.00;;;;;;;7.16;100.00;99925.38;10411305;28;20492;-77
2022/12/30 16:58:27;;;;;;;0.00;0.00;;;;;;;7.17;100.00;99929.69;10411269;28;20484;-76
2022/12/30 17:03:27;;;;;;;0.10;0.10;;;;;;;7.20;100.00;99900.22;10393299;28;20025;-77
2022/12/30 17:08:30;;;;;;;0.00;0.00;;;;;;;7.16;100.00;99887.47;10410880;28;20029;-77
2022/12/30 17:13:40;;;;;;;0.10;0.10;;;;;;;7.10;100.00;99880.16;10410438;28;20441;-76
2022/12/30 17:18:40;;;;;;;0.10;0.10;;;;;;;7.06;100.00;99861.09;10410576;28;20037;-76
2022/12/30 17:23:44;;;;;;;0.00;0.00;;;;;;;7.06;100.00;99842.56;10410325;28;20037;-77
2022/12/30 17:28:44;;;;;;;0.00;0.00;;;;;;;7.12;100.00;99852.50;10410497;28;20290;-76
2022/12/30 17:33:45;;;;;;;0.00;0.00;;;;;;;7.10;100.00;99857.16;10411003;28;20023;-77
2022/12/30 17:38:47;;;;;;;0.00;0.00;;;;;;;7.13;100.00;99846.25;10413078;28;20056;-76
2022/12/30 17:43:48;;;;;;;0.00;0.00;;;;;;;7.11;100.00;99839.44;10392517;28;20476;-76
2022/12/30 17:48:48;;;;;;;0.10;0.10;;;;;;;7.02;100.00;99815.59;10410632;28;20029;-77
2022/12/30 17:53:49;;;;;;;0.10;0.10;;;;;;;6.94;100.00;99820.84;10410681;28;20025;-76
2022/12/30 17:58:50;;;;;;;0.00;0.00;;;;;;;6.94;100.00;99830.63;10418894;28;20404;-76
2022/12/30 18:03:50;;;;;;;0.00;0.00;;;;;;;6.90;100.00;99797.53;10419654;28;20392;-77
2022/12/30 18:08:51;;;;;;;0.00;0.00;;;;;;;7.00;100.00;99824.69;10401512;28;20087;-78
2022/12/30 18:13:51;;;;;;;0.10;0.10;;;;;;;6.97;100.00;99787.94;10418906;28;20028;-78
2022/12/30 18:18:52;;;;;;;0.00;0.00;;;;;;;6.94;100.00;99794.38;10392060;28;20033;-77
2022/12/30 18:23:53;;;;;;;0.10;0.10;;;;;;;6.91;100.00;99796.53;10363333;28;20022;-77
2022/12/30 18:28:54;;;;;;;0.10;0.10;;;;;;;6.84;100.00;99771.69;10376977;28;20400;-76
2022/12/30 18:33:55;;;;;;;0.10;0.10;;;;;;;6.75;100.00;99781.44;10377036;28;20032;-78
2022/12/30 18:38:57;;;;;;;0.10;0.10;;;;;;;6.54;100.00;99772.09;10402063;28;20068;-78
2022/12/30 18:44:03;;;;;;;0.00;0.00;;;;;;;6.45;100.00;99772.19;10409119;28;20371;-78
2022/12/30 18:49:06;;;;;;;0.00;0.00;;;;;;;6.40;100.00;99771.81;10377959;28;20026;-78
2022/12/30 18:54:11;;;;;;;0.00;0.00;;;;;;;6.33;100.00;99763.69;10366605;28;20175;-77
2022/12/30 18:59:12;;;;;;;0.00;0.00;;;;;;;6.30;100.00;99751.63;10414816;28;20036;-78
2022/12/30 19:04:14;;;;;;;0.10;0.10;;;;;;;-145.06;100.00;53851.88;10418578;28;20105;-79
2022/12/30 19:09:17;;;;;;;0.00;0.00;;;;;;;-145.06;100.00;53908.59;10392186;28;20500;-78
2022/12/30 19:14:19;;;;;;;0.00;0.00;;;;;;;-145.06;100.00;53866.06;10376196;28;20387;-78
2022/12/30 19:19:20;;;;;;;0.00;0.00;;;;;;;-145.06;100.00;53884.28;10360997;28;20030;-79
2022/12/30 19:24:20;;;;;;;0.00;0.00;;;;;;;-145.06;100.00;53859.97;10359426;28;20014;-78
2022/12/30 19:29:21;;;;;;;0.10;0.10;;;;;;;-145.06;100.00;53849.84;10377575;28;20033;-78
2022/12/30 19:34:22;;;;;;;0.00;0.00;;;;;;;-145.06;100.00;53823.53;10384818;28;20026;-77
2022/12/30 19:39:23;;;;;;;0.00;0.00;;;;;;;-145.06;100.00;53876.19;10407140;28;20396;-77
2022/12/30 19:44:23;;;;;;;0.00;0.00;;;;;;;-145.06;100.00;53829.59;10418177;28;20017;-79
2022/12/30 19:49:24;;;;;;;0.03;0.03;;;;;;;-145.06;100.00;53855.94;10415444;28;20026;-79
2022/12/30 19:54:24;;;;;;;0.00;0.00;;;;;;;-145.06;100.00;53857.97;10376084;28;20022;-79
2022/12/30 19:59:24;;;;;;;0.10;0.10;;;;;;;-145.06;100.00;53890.38;10364562;28;20026;-79
2022/12/30 20:04:25;;;;;;;0.10;0.10;;;;;;;-145.06;100.00;53864.03;10380779;28;20026;-78
2022/12/30 20:09:25;;;;;;;0.10;0.10;;;;;;;-145.06;100.00;53884.28;10357636;28;20312;-79
2022/12/30 20:14:25;;;;;;;0.00;0.00;;;;;;;-145.06;100.00;53888.34;10393175;28;20419;-78
2022/12/30 20:19:26;;;;;;;0.00;0.00;;;;;;;-145.06;100.00;53904.53;10414681;28;20083;-78
2022/12/30 20:24:29;;;;;;;0.00;0.00;;;;;;;-145.06;100.00;53823.53;10414923;28;20018;-79
2022/12/30 20:29:30;;;;;;;0.00;0.00;;;;;;;-145.06;100.00;53870.09;10414539;28;20108;-77
2022/12/30 20:34:30;;;;;;;0.00;0.00;;;;;;;-145.06;100.00;53886.31;10414634;28;20116;-78
2022/12/30 20:39:31;;;;;;;0.10;0.10;;;;;;;-145.06;100.00;53894.41;10419299;28;20276;-78
2022/12/30 20:44:33;;;;;;;0.00;0.00;;;;;;;-145.06;100.00;53827.59;10414337;28;20013;-76
2022/12/30 20:49:33;;;;;;;0.00;0.00;;;;;;;-145.06;100.00;53851.88;10414223;28;20496;-79
2022/12/30 20:54:34;;;;;;;0.10;0.10;;;;;;;-145.06;100.00;53876.19;10396871;28;20028;-79
2022/12/30 20:59:34;;;;;;;0.08;0.08;;;;;;;-145.06;100.00;53876.19;10396067;28;20079;-79
2022/12/30 21:04:35;;;;;;;0.00;0.00;;;;;;;-145.06;100.00;53894.41;10413417;28;20067;-79
2022/12/30 21:09:37;;;;;;;0.10;0.10;;;;;;;-145.06;100.00;53866.06;10414308;28;20303;-79
2022/12/30 21:14:37;;;;;;;0.10;0.10;;;;;;;-145.06;100.00;53874.16;10396072;28;20400;-79
2022/12/30 21:19:38;;;;;;;0.00;0.00;;;;;;;-145.06;100.00;53851.88;10396024;28;20033;-78
2022/12/30 21:24:38;;;;;;;0.10;0.10;;;;;;;-145.06;100.00;53870.09;10413951;28;20021;-78
2022/12/30 21:29:38;;;;;;;0.00;0.00;;;;;;;-145.06;100.00;53888.34;10395920;28;20277;-78
2022/12/30 21:34:38;;;;;;;0.00;0.00;;;;;;;-145.06;100.00;53868.09;10396103;28;20021;-79
2022/12/30 22:06:35;;;;;;;0.10;0.10;;;;;;;-145.06;100.00;53809.34;10371750;28;20061;-79
2022/12/30 22:11:35;;;;;;;0.10;0.10;;;;;;;-145.06;100.00;53882.25;10372163;28;20106;-79
2022/12/30 22:16:36;;;;;;;0.00;0.00;;;;;;;-145.06;100.00;53864.03;10354270;28;20037;-79
2022/12/30 22:21:36;;;;;;;0.00;0.00;;;;;;;-145.06;100.00;53855.94;10372369;28;20264;-79
2022/12/30 22:26:36;;;;;;;0.00;0.00;;;;;;;-145.06;100.00;53876.19;10397280;28;20060;-78
2022/12/30 22:31:36;;;;;;;0.10;0.10;;;;;;;-145.06;100.00;53870.09;10394339;28;20121;-77
2022/12/30 22:36:37;;;;;;;0.10;0.10;;;;;;;-145.06;100.00;53843.78;10412005;28;20084;-77
2022/12/30 22:41:37;;;;;;;0.00;0.00;;;;;;;-145.06;100.00;53855.94;10413739;28;20033;-79
2022/12/30 22:46:37;;;;;;;0.00;0.00;;;;;;;-145.06;100.00;53868.09;10391710;28;20084;-78
2022/12/30 22:51:38;;;;;;;0.03;0.03;;;;;;;-145.06;100.00;53872.13;10387207;28;20209;-79
2022/12/30 22:56:38;;;;;;;0.10;0.10;;;;;;;-145.06;100.00;53853.91;10401343;28;20147;-79
2022/12/30 23:01:38;;;;;;;0.10;0.10;;;;;;;-145.06;100.00;53835.69;10418361;28;20486;-78
2022/12/30 23:06:39;;;;;;;0.10;0.10;;;;;;;-145.06;100.00;53855.94;10392962;28;20022;-77
2022/12/30 23:11:39;;;;;;;0.00;0.00;;;;;;;-145.06;100.00;53874.16;10377309;28;20704;-78
2022/12/30 23:16:40;;;;;;;0.10;0.10;;;;;;;-145.06;100.00;53855.94;10376440;28;20033;-78
2022/12/30 23:21:40;;;;;;;0.00;0.00;;;;;;;-145.06;100.00;53855.94;10376085;28;20026;-77
2022/12/30 23:26:41;;;;;;;0.10;0.10;;;;;;;-145.06;100.00;53851.88;10375768;28;20030;-78
2022/12/30 23:31:41;;;;;;;0.10;0.10;;;;;;;-145.06;100.00;53868.09;10395204;28;20025;-77
2022/12/30 23:36:44;;;;;;;0.10;0.10;;;;;;;-145.06;100.00;53855.94;10417216;28;20025;-77
2022/12/30 23:41:44;;;;;;;0.00;0.00;;;;;;;-145.06;100.00;53874.16;10401010;28;20112;-77
2022/12/30 23:46:45;;;;;;;0.10;0.10;;;;;;;-145.06;100.00;53898.47;10419125;28;20113;-77
2022/12/30 23:51:45;;;;;;;0.10;0.10;;;;;;;-145.06;100.00;53851.88;10418017;28;20119;-78
2022/12/30 23:56:45;;;;;;;0.00;0.00;;;;;;;-145.06;100.00;53837.72;10399051;28;20279;-78
